createdAt,value
2019-02-21T00:05:05.682Z,6.71
2019-02-21T00:11:11.433Z,6.67
2019-02-21T00:17:17.187Z,6.67
2019-02-21T00:23:22.986Z,6.67
2019-02-21T00:29:29.008Z,6.66
2019-02-21T00:35:35.214Z,6.50
2019-02-21T00:41:41.336Z,6.39
2019-02-21T00:47:47.391Z,6.36
2019-02-21T00:53:53.510Z,6.33
2019-02-21T00:59:59.458Z,6.28
2019-02-21T01:06:05.599Z,6.29
2019-02-21T01:12:11.418Z,6.22
2019-02-21T01:18:17.178Z,6.18
2019-02-21T01:24:22.935Z,6.19
2019-02-21T01:30:28.918Z,6.19
2019-02-21T01:36:34.666Z,6.18
2019-02-21T01:42:40.961Z,6.20
2019-02-21T01:48:46.866Z,6.16
2019-02-21T01:54:52.617Z,6.14
2019-02-21T02:01:07.950Z,6.16
2019-02-21T02:07:06.040Z,6.08
2019-02-21T02:13:23.740Z,6.03
2019-02-21T02:19:19.380Z,5.97
2019-02-21T02:25:25.385Z,5.96
2019-02-21T02:31:31.124Z,5.99
2019-02-21T02:37:36.918Z,6.02
2019-02-21T02:43:42.802Z,6.02
2019-02-21T02:49:49.007Z,5.88
2019-02-21T02:55:54.815Z,5.79
2019-02-21T03:02:00.675Z,5.74
2019-02-21T03:08:06.624Z,5.84
2019-02-21T03:14:12.356Z,5.90
2019-02-21T03:20:18.130Z,6.00
2019-02-21T03:26:23.864Z,6.08
2019-02-21T03:32:29.668Z,6.17
2019-02-21T03:38:35.891Z,6.22
2019-02-21T03:44:41.768Z,6.34
2019-02-21T03:50:47.847Z,6.37
2019-02-21T03:56:53.761Z,6.47
2019-02-21T04:02:59.599Z,6.61
2019-02-21T04:09:08.982Z,6.72
2019-02-21T04:15:14.895Z,6.78
2019-02-21T04:21:21.128Z,6.75
2019-02-21T04:27:27.084Z,6.71
2019-02-21T04:33:34.448Z,6.64
2019-02-21T04:39:40.548Z,6.58
2019-02-21T04:45:46.597Z,6.55
2019-02-21T04:51:52.727Z,6.51
2019-02-21T04:57:58.626Z,6.49
2019-02-21T05:04:05.050Z,6.44
2019-02-21T05:10:10.947Z,6.42
2019-02-21T05:16:17.019Z,6.44
2019-02-21T05:22:22.878Z,6.46
2019-02-21T05:28:30.976Z,6.51
2019-02-21T05:34:58.978Z,6.50
2019-02-21T05:41:32.818Z,6.50
2019-02-21T05:47:55.014Z,6.52
2019-02-21T05:54:19.761Z,6.46
2019-02-21T06:00:37.429Z,6.41
2019-02-21T06:06:58.556Z,6.40
2019-02-21T06:13:27.004Z,6.36
2019-02-21T06:19:55.747Z,6.30
2019-02-21T06:26:18.019Z,6.24
2019-02-21T06:32:24.006Z,6.22
2019-02-21T06:38:29.831Z,6.21
2019-02-21T06:44:37.934Z,6.20
2019-02-21T06:50:44.126Z,6.20
2019-02-21T06:56:50.014Z,6.22
2019-02-21T07:02:56.014Z,6.29
2019-02-21T07:09:02.204Z,6.38
2019-02-21T07:15:09.980Z,6.43
2019-02-21T07:21:15.939Z,6.49
2019-02-21T07:27:21.782Z,6.57
2019-02-21T07:33:31.063Z,6.71
2019-02-21T07:39:43.919Z,6.86
2019-02-21T07:45:50.290Z,7.03
2019-02-21T07:51:56.019Z,7.17
2019-02-21T07:58:04.003Z,7.37
2019-02-21T08:04:09.461Z,7.47
2019-02-21T08:10:15.479Z,7.61
2019-02-21T08:16:21.399Z,7.81
2019-02-21T08:22:27.167Z,8.12
2019-02-21T08:28:33.040Z,8.42
2019-02-21T08:34:48.030Z,8.67
2019-02-21T08:40:53.405Z,8.84
2019-02-21T08:46:59.502Z,9.00
2019-02-21T08:53:05.271Z,9.14
2019-02-21T08:59:11.030Z,9.21
2019-02-21T09:05:17.139Z,9.27
2019-02-21T09:11:22.984Z,9.26
2019-02-21T09:17:29.011Z,9.29
2019-02-21T09:23:34.785Z,9.48
2019-02-21T09:29:40.510Z,9.71
2019-02-21T09:35:46.442Z,9.97
2019-02-21T09:41:52.636Z,10.36
2019-02-21T09:47:58.835Z,10.62
2019-02-21T09:54:04.747Z,10.74
2019-02-21T10:00:15.261Z,10.87
2019-02-21T10:06:21.169Z,10.88
2019-02-21T10:12:26.897Z,10.78
2019-02-21T10:18:32.694Z,10.75
2019-02-21T10:24:38.658Z,10.74
2019-02-21T10:30:44.727Z,10.67
2019-02-21T10:36:50.746Z,10.60
2019-02-21T10:42:56.571Z,10.58
2019-02-21T10:49:02.351Z,10.67
2019-02-21T10:55:08.673Z,10.88
2019-02-21T11:01:14.439Z,11.17
2019-02-21T11:07:20.187Z,11.57
2019-02-21T11:13:25.970Z,11.69
2019-02-21T11:19:32.292Z,11.78
2019-02-21T11:25:38.530Z,11.76
2019-02-21T11:31:44.448Z,11.73
2019-02-21T11:37:50.394Z,11.92
2019-02-21T11:43:56.787Z,12.10
2019-02-21T11:50:02.872Z,12.41
2019-02-21T11:56:09.828Z,12.72
2019-02-21T12:02:15.703Z,12.99
2019-02-21T12:08:23.369Z,13.16
2019-02-21T12:14:29.665Z,13.17
2019-02-21T12:20:35.652Z,13.44
2019-02-21T12:26:41.708Z,13.67
2019-02-21T12:32:48.130Z,13.69
2019-02-21T12:38:53.901Z,13.78
2019-02-21T12:44:59.732Z,13.96
2019-02-21T12:51:05.806Z,13.97
2019-02-21T12:57:12.201Z,13.86
2019-02-21T13:03:17.984Z,13.77
2019-02-21T13:09:24.358Z,13.72
2019-02-21T13:15:30.435Z,13.55
2019-02-21T13:21:36.230Z,13.63
2019-02-21T13:27:42.226Z,13.72
2019-02-21T13:33:48.160Z,13.68
2019-02-21T13:39:54.088Z,13.36
2019-02-21T13:46:00.139Z,13.30
2019-02-21T13:52:05.926Z,13.33
2019-02-21T13:58:11.709Z,13.29
2019-02-21T14:04:17.708Z,13.35
2019-02-21T14:10:23.561Z,13.55
2019-02-21T14:16:29.831Z,13.55
2019-02-21T14:22:35.743Z,13.68
2019-02-21T14:28:41.509Z,13.73
2019-02-21T14:34:47.375Z,13.91
2019-02-21T14:40:53.297Z,13.96
2019-02-21T14:46:59.966Z,13.82
2019-02-21T14:53:06.734Z,13.88
2019-02-21T14:59:12.982Z,13.77
2019-02-21T15:05:19.108Z,13.70
2019-02-21T15:11:25.476Z,13.80
2019-02-21T15:17:32.082Z,13.80
2019-02-21T15:23:38.174Z,13.74
2019-02-21T15:29:43.980Z,13.67
2019-02-21T15:35:50.058Z,13.71
2019-02-21T15:41:56.013Z,13.66
2019-02-21T15:48:02.405Z,13.70
2019-02-21T15:54:08.467Z,13.73
2019-02-21T16:00:17.312Z,13.68
2019-02-21T16:06:23.462Z,13.67
2019-02-21T16:12:29.415Z,13.57
2019-02-21T16:18:35.615Z,13.50
2019-02-21T16:24:43.710Z,13.49
2019-02-21T16:30:49.784Z,13.41
2019-02-21T16:37:02.477Z,13.44
2019-02-21T16:43:08.029Z,13.31
2019-02-21T16:49:13.910Z,13.32
2019-02-21T16:55:20.371Z,13.32
2019-02-21T17:01:26.169Z,13.21
2019-02-21T17:07:32.006Z,13.11
2019-02-21T17:13:38.845Z,13.04
2019-02-21T17:19:45.188Z,13.02
2019-02-21T17:25:51.079Z,13.03
2019-02-21T17:31:56.910Z,13.05
2019-02-21T17:38:02.789Z,13.09
2019-02-21T17:44:08.795Z,13.07
2019-02-21T17:50:15.504Z,13.09
2019-02-21T17:56:43.158Z,12.96
2019-02-21T18:02:46.618Z,12.91
2019-02-21T18:08:55.038Z,12.79
2019-02-21T18:15:00.743Z,12.76
2019-02-21T18:21:08.292Z,12.59
2019-02-21T18:27:14.640Z,12.36
2019-02-21T18:33:20.900Z,12.18
2019-02-21T18:39:26.989Z,12.20
2019-02-21T18:45:32.958Z,12.25
2019-02-21T18:51:38.971Z,12.27
2019-02-21T18:57:46.884Z,12.28
2019-02-21T19:03:52.943Z,12.29
2019-02-21T19:09:59.149Z,12.28
2019-02-21T19:16:05.367Z,12.31
2019-02-21T19:22:11.601Z,12.28
2019-02-21T19:28:36.489Z,12.22
2019-02-21T19:34:43.133Z,12.22
2019-02-21T19:40:48.990Z,12.11
2019-02-21T19:46:55.283Z,12.07
2019-02-21T19:53:01.346Z,12.13
2019-02-21T19:59:08.280Z,12.11
2019-02-21T20:05:14.154Z,12.10
2019-02-21T20:11:19.966Z,12.16
2019-02-21T20:17:26.323Z,12.14
2019-02-21T20:23:32.176Z,12.03
2019-02-21T20:29:38.146Z,11.94
2019-02-21T20:35:44.339Z,11.85
2019-02-21T20:41:50.213Z,11.72
2019-02-21T20:47:56.583Z,11.60
2019-02-21T20:54:02.536Z,11.50
2019-02-21T21:00:11.054Z,11.48
2019-02-21T21:06:16.976Z,11.53
2019-02-21T21:12:23.181Z,11.36
2019-02-21T21:18:29.659Z,11.28
2019-02-21T21:24:35.734Z,11.24
2019-02-21T21:30:42.017Z,11.19
2019-02-21T21:36:47.922Z,11.22
2019-02-21T21:42:54.045Z,11.24
2019-02-21T21:49:00.031Z,11.23
2019-02-21T21:55:06.534Z,11.24
2019-02-21T22:01:12.535Z,11.30
2019-02-21T22:07:18.484Z,11.36
2019-02-21T22:13:24.667Z,11.32
2019-02-21T22:19:30.928Z,11.30
2019-02-21T22:25:37.453Z,11.30
2019-02-21T22:31:43.549Z,11.23
2019-02-21T22:37:49.391Z,11.17
2019-02-21T22:43:55.280Z,11.13
2019-02-21T22:50:01.566Z,11.11
2019-02-21T22:56:07.655Z,11.10
2019-02-21T23:02:13.965Z,11.17
2019-02-21T23:08:54.008Z,11.22
2019-02-21T23:14:59.777Z,11.25
2019-02-21T23:21:05.712Z,11.26
2019-02-21T23:27:11.524Z,11.24
2019-02-21T23:33:17.701Z,11.23
2019-02-21T23:39:23.499Z,11.20
2019-02-21T23:45:29.415Z,11.18
2019-02-21T23:51:35.330Z,11.10
2019-02-21T23:57:41.324Z,11.10
